sensor_id;sensor_type;location;lat;lon;timestamp;pressure;altitude;pressure_sealevel;temperature;humidity
20156;BME280;10238;49.556;10.956;2023-01-16T00:01:40;97250.06;;;0.65;100.00
20156;BME280;10238;49.556;10.956;2023-01-16T00:04:29;97241.84;;;0.59;100.00
20156;BME280;10238;49.556;10.956;2023-01-16T00:07:17;97232.72;;;0.53;100.00
20156;BME280;10238;49.556;10.956;2023-01-16T00:10:06;97228.94;;;0.46;100.00
20156;BME280;10238;49.556;10.956;2023-01-16T00:12:54;97215.13;;;0.44;100.00
20156;BME280;10238;49.556;10.956;2023-01-16T00:15:45;97217.31;;;0.39;100.00
20156;BME280;10238;49.556;10.956;2023-01-16T00:18:33;97215.63;;;0.38;100.00
20156;BME280;10238;49.556;10.956;2023-01-16T00:21:23;97214.19;;;0.34;100.00
20156;BME280;10238;49.556;10.956;2023-01-16T00:24:13;97208.53;;;0.29;100.00
20156;BME280;10238;49.556;10.956;2023-01-16T00:27:00;97205.78;;;0.31;100.00
20156;BME280;10238;49.556;10.956;2023-01-16T00:29:49;97193.78;;;0.28;100.00
20156;BME280;10238;49.556;10.956;2023-01-16T00:32:37;97202.81;;;0.24;100.00
20156;BME280;10238;49.556;10.956;2023-01-16T00:35:25;97199.84;;;0.29;100.00
20156;BME280;10238;49.556;10.956;2023-01-16T00:38:14;97187.63;;;0.29;100.00
20156;BME280;10238;49.556;10.956;2023-01-16T00:41:02;97192.13;;;0.27;100.00
20156;BME280;10238;49.556;10.956;2023-01-16T00:43:50;97183.56;;;0.25;100.00
20156;BME280;10238;49.556;10.956;2023-01-16T00:46:38;97180.47;;;0.42;100.00
20156;BME280;10238;49.556;10.956;2023-01-16T00:49:26;97180.00;;;0.48;100.00
20156;BME280;10238;49.556;10.956;2023-01-16T00:52:14;97176.13;;;0.63;100.00
20156;BME280;10238;49.556;10.956;2023-01-16T00:55:04;97171.38;;;0.68;100.00
20156;BME280;10238;49.556;10.956;2023-01-16T00:57:52;97168.53;;;0.71;100.00
20156;BME280;10238;49.556;10.956;2023-01-16T01:00:39;97163.41;;;0.70;100.00
20156;BME280;10238;49.556;10.956;2023-01-16T01:03:29;97150.09;;;0.62;100.00
20156;BME280;10238;49.556;10.956;2023-01-16T01:06:20;97144.81;;;0.52;100.00
20156;BME280;10238;49.556;10.956;2023-01-16T01:09:08;97138.75;;;0.52;100.00
20156;BME280;10238;49.556;10.956;2023-01-16T01:11:58;97137.34;;;0.48;100.00
20156;BME280;10238;49.556;10.956;2023-01-16T01:14:46;97128.69;;;0.36;100.00
20156;BME280;10238;49.556;10.956;2023-01-16T01:17:34;97135.59;;;0.26;100.00
20156;BME280;10238;49.556;10.956;2023-01-16T01:20:21;97131.94;;;0.18;100.00
20156;BME280;10238;49.556;10.956;2023-01-16T01:23:09;97142.75;;;0.13;100.00
20156;BME280;10238;49.556;10.956;2023-01-16T01:25:58;97136.09;;;0.09;100.00
20156;BME280;10238;49.556;10.956;2023-01-16T01:28:46;97126.59;;;0.08;100.00
20156;BME280;10238;49.556;10.956;2023-01-16T01:31:34;97127.31;;;0.10;100.00
20156;BME280;10238;49.556;10.956;2023-01-16T01:34:22;97124.47;;;0.13;100.00
20156;BME280;10238;49.556;10.956;2023-01-16T01:37:10;97116.94;;;0.20;100.00
20156;BME280;10238;49.556;10.956;2023-01-16T01:39:58;97107.69;;;0.27;100.00
20156;BME280;10238;49.556;10.956;2023-01-16T01:42:45;97096.84;;;0.31;100.00
20156;BME280;10238;49.556;10.956;2023-01-16T01:45:41;97095.94;;;0.32;100.00
20156;BME280;10238;49.556;10.956;2023-01-16T01:48:39;97104.13;;;0.28;100.00
20156;BME280;10238;49.556;10.956;2023-01-16T01:51:32;97101.41;;;0.29;100.00
20156;BME280;10238;49.556;10.956;2023-01-16T01:54:27;97089.25;;;0.28;100.00
20156;BME280;10238;49.556;10.956;2023-01-16T01:57:21;97078.56;;;0.31;100.00
20156;BME280;10238;49.556;10.956;2023-01-16T02:00:17;97076.44;;;0.36;100.00
20156;BME280;10238;49.556;10.956;2023-01-16T02:03:14;97071.75;;;0.40;100.00
20156;BME280;10238;49.556;10.956;2023-01-16T02:06:07;97067.13;;;0.43;100.00
20156;BME280;10238;49.556;10.956;2023-01-16T02:08:57;97050.91;;;0.60;100.00
20156;BME280;10238;49.556;10.956;2023-01-16T02:11:51;97045.38;;;0.74;100.00
20156;BME280;10238;49.556;10.956;2023-01-16T02:14:43;97026.38;;;0.93;100.00
20156;BME280;10238;49.556;10.956;2023-01-16T02:17:32;97036.97;;;0.91;100.00
20156;BME280;10238;49.556;10.956;2023-01-16T02:20:55;97035.31;;;0.90;100.00
20156;BME280;10238;49.556;10.956;2023-01-16T02:24:21;97022.66;;;0.95;100.00
20156;BME280;10238;49.556;10.956;2023-01-16T02:27:47;97017.53;;;1.14;100.00
20156;BME280;10238;49.556;10.956;2023-01-16T02:31:09;97006.81;;;1.17;100.00
20156;BME280;10238;49.556;10.956;2023-01-16T02:34:18;97001.72;;;1.16;100.00
20156;BME280;10238;49.556;10.956;2023-01-16T02:37:21;96986.00;;;1.16;100.00
20156;BME280;10238;49.556;10.956;2023-01-16T02:40:27;96981.34;;;1.19;100.00
20156;BME280;10238;49.556;10.956;2023-01-16T02:43:32;96970.78;;;1.30;100.00
20156;BME280;10238;49.556;10.956;2023-01-16T02:46:28;96961.47;;;1.37;100.00
20156;BME280;10238;49.556;10.956;2023-01-16T02:49:25;96961.72;;;1.34;100.00
20156;BME280;10238;49.556;10.956;2023-01-16T02:52:22;96951.81;;;1.38;100.00
20156;BME280;10238;49.556;10.956;2023-01-16T02:55:22;96939.44;;;1.49;100.00
20156;BME280;10238;49.556;10.956;2023-01-16T02:58:13;96938.91;;;1.55;100.00
20156;BME280;10238;49.556;10.956;2023-01-16T03:01:01;96932.59;;;1.58;100.00
20156;BME280;10238;49.556;10.956;2023-01-16T03:04:04;96928.16;;;1.58;100.00
20156;BME280;10238;49.556;10.956;2023-01-16T03:07:04;96915.78;;;1.60;100.00
20156;BME280;10238;49.556;10.956;2023-01-16T03:10:19;96917.44;;;1.61;100.00
20156;BME280;10238;49.556;10.956;2023-01-16T03:13:25;96897.31;;;1.62;100.00
20156;BME280;10238;49.556;10.956;2023-01-16T03:16:28;96890.13;;;1.64;100.00
20156;BME280;10238;49.556;10.956;2023-01-16T03:19:30;96883.53;;;1.60;100.00
20156;BME280;10238;49.556;10.956;2023-01-16T03:22:31;96884.91;;;1.54;100.00
20156;BME280;10238;49.556;10.956;2023-01-16T03:25:38;96879.78;;;1.53;100.00
20156;BME280;10238;49.556;10.956;2023-01-16T03:28:41;96875.94;;;1.57;100.00
20156;BME280;10238;49.556;10.956;2023-01-16T03:31:41;96864.34;;;1.59;100.00
20156;BME280;10238;49.556;10.956;2023-01-16T03:34:39;96863.97;;;1.54;100.00
20156;BME280;10238;49.556;10.956;2023-01-16T03:37:34;96848.53;;;1.51;100.00
20156;BME280;10238;49.556;10.956;2023-01-16T03:40:32;96836.41;;;1.50;100.00
20156;BME280;10238;49.556;10.956;2023-01-16T03:43:26;96833.91;;;1.49;100.00
20156;BME280;10238;49.556;10.956;2023-01-16T03:46:19;96822.19;;;1.43;100.00
20156;BME280;10238;49.556;10.956;2023-01-16T03:49:17;96814.34;;;1.34;100.00
20156;BME280;10238;49.556;10.956;2023-01-16T03:52:12;96809.63;;;1.28;100.00
20156;BME280;10238;49.556;10.956;2023-01-16T03:55:08;96807.41;;;1.23;100.00
20156;BME280;10238;49.556;10.956;2023-01-16T03:58:04;96802.72;;;1.17;100.00
20156;BME280;10238;49.556;10.956;2023-01-16T04:01:02;96790.63;;;1.16;100.00
20156;BME280;10238;49.556;10.956;2023-01-16T04:04:02;96789.91;;;1.14;100.00
20156;BME280;10238;49.556;10.956;2023-01-16T04:06:57;96781.25;;;1.14;100.00
20156;BME280;10238;49.556;10.956;2023-01-16T04:09:52;96773.53;;;1.12;100.00
20156;BME280;10238;49.556;10.956;2023-01-16T04:12:47;96769.66;;;1.07;100.00
20156;BME280;10238;49.556;10.956;2023-01-16T04:15:42;96755.78;;;1.06;100.00
20156;BME280;10238;49.556;10.956;2023-01-16T04:18:34;96755.34;;;1.01;100.00
20156;BME280;10238;49.556;10.956;2023-01-16T04:21:26;96750.38;;;0.98;100.00
20156;BME280;10238;49.556;10.956;2023-01-16T04:24:16;96751.88;;;0.91;100.00
20156;BME280;10238;49.556;10.956;2023-01-16T04:27:06;96744.31;;;0.88;100.00
20156;BME280;10238;49.556;10.956;2023-01-16T04:29:57;96744.31;;;0.88;100.00
20156;BME280;10238;49.556;10.956;2023-01-16T04:32:46;96737.97;;;0.91;100.00
20156;BME280;10238;49.556;10.956;2023-01-16T04:35:34;96723.38;;;0.88;100.00
20156;BME280;10238;49.556;10.956;2023-01-16T04:38:22;96709.91;;;0.93;100.00
20156;BME280;10238;49.556;10.956;2023-01-16T04:41:09;96709.06;;;0.92;100.00
20156;BME280;10238;49.556;10.956;2023-01-16T04:43:58;96702.19;;;0.91;100.00
20156;BME280;10238;49.556;10.956;2023-01-16T04:46:46;96708.81;;;0.86;100.00
20156;BME280;10238;49.556;10.956;2023-01-16T04:49:34;96698.03;;;0.79;100.00
20156;BME280;10238;49.556;10.956;2023-01-16T04:52:22;96685.81;;;0.70;100.00
20156;BME280;10238;49.556;10.956;2023-01-16T04:55:10;96684.81;;;0.62;100.00
20156;BME280;10238;49.556;10.956;2023-01-16T04:57:58;96686.75;;;0.60;100.00
20156;BME280;10238;49.556;10.956;2023-01-16T05:00:47;96683.56;;;0.56;100.00
20156;BME280;10238;49.556;10.956;2023-01-16T05:03:37;96677.63;;;0.54;100.00
20156;BME280;10238;49.556;10.956;2023-01-16T05:06:25;96677.94;;;0.51;100.00
20156;BME280;10238;49.556;10.956;2023-01-16T05:09:13;96671.03;;;0.50;100.00
20156;BME280;10238;49.556;10.956;2023-01-16T05:12:03;96665.78;;;0.50;100.00
20156;BME280;10238;49.556;10.956;2023-01-16T05:14:51;96664.69;;;0.43;100.00
20156;BME280;10238;49.556;10.956;2023-01-16T05:17:40;96662.59;;;0.37;100.00
20156;BME280;10238;49.556;10.956;2023-01-16T05:20:28;96643.34;;;0.29;100.00
20156;BME280;10238;49.556;10.956;2023-01-16T05:23:18;96638.78;;;0.21;100.00
20156;BME280;10238;49.556;10.956;2023-01-16T05:26:07;96631.59;;;0.14;100.00
20156;BME280;10238;49.556;10.956;2023-01-16T05:28:54;96629.13;;;0.12;100.00
20156;BME280;10238;49.556;10.956;2023-01-16T05:31:42;96629.38;;;0.09;100.00
20156;BME280;10238;49.556;10.956;2023-01-16T05:34:31;96620.63;;;0.10;100.00
20156;BME280;10238;49.556;10.956;2023-01-16T05:37:18;96618.28;;;0.07;100.00
20156;BME280;10238;49.556;10.956;2023-01-16T05:40:08;96605.47;;;0.04;100.00
20156;BME280;10238;49.556;10.956;2023-01-16T05:42:55;96614.53;;;0.00;100.00
20156;BME280;10238;49.556;10.956;2023-01-16T05:45:43;96601.03;;;-0.05;100.00
20156;BME280;10238;49.556;10.956;2023-01-16T05:48:30;96598.44;;;-0.05;100.00
20156;BME280;10238;49.556;10.956;2023-01-16T05:51:20;96591.03;;;0.00;100.00
20156;BME280;10238;49.556;10.956;2023-01-16T05:54:10;96590.22;;;-0.01;100.00
20156;BME280;10238;49.556;10.956;2023-01-16T05:56:58;96576.03;;;0.02;100.00
20156;BME280;10238;49.556;10.956;2023-01-16T05:59:48;96570.16;;;0.00;100.00
20156;BME280;10238;49.556;10.956;2023-01-16T06:02:36;96575.22;;;0.01;100.00
20156;BME280;10238;49.556;10.956;2023-01-16T06:05:24;96573.56;;;0.00;100.00
20156;BME280;10238;49.556;10.956;2023-01-16T06:08:13;96574.66;;;-0.02;100.00
20156;BME280;10238;49.556;10.956;2023-01-16T06:11:00;96570.69;;;-0.06;100.00
20156;BME280;10238;49.556;10.956;2023-01-16T06:13:48;96553.75;;;-0.12;100.00
20156;BME280;10238;49.556;10.956;2023-01-16T06:16:36;96556.75;;;-0.16;100.00
20156;BME280;10238;49.556;10.956;2023-01-16T06:19:23;96554.69;;;-0.22;100.00
20156;BME280;10238;49.556;10.956;2023-01-16T06:22:14;96546.44;;;-0.27;100.00
20156;BME280;10238;49.556;10.956;2023-01-16T06:25:04;96531.44;;;-0.35;100.00
20156;BME280;10238;49.556;10.956;2023-01-16T06:27:52;96525.09;;;-0.42;100.00
20156;BME280;10238;49.556;10.956;2023-01-16T06:30:41;96519.56;;;-0.48;100.00
20156;BME280;10238;49.556;10.956;2023-01-16T06:33:29;96515.44;;;-0.51;100.00
20156;BME280;10238;49.556;10.956;2023-01-16T06:36:16;96504.47;;;-0.54;100.00
20156;BME280;10238;49.556;10.956;2023-01-16T06:39:04;96506.66;;;-0.50;100.00
20156;BME280;10238;49.556;10.956;2023-01-16T06:41:53;96499.78;;;-0.51;100.00
20156;BME280;10238;49.556;10.956;2023-01-16T06:44:40;96497.63;;;-0.46;100.00
20156;BME280;10238;49.556;10.956;2023-01-16T06:47:28;96494.88;;;-0.44;100.00
20156;BME280;10238;49.556;10.956;2023-01-16T06:50:17;96483.59;;;-0.45;100.00
20156;BME280;10238;49.556;10.956;2023-01-16T06:53:05;96478.97;;;-0.41;100.00
20156;BME280;10238;49.556;10.956;2023-01-16T06:55:52;96466.84;;;-0.42;100.00
20156;BME280;10238;49.556;10.956;2023-01-16T06:58:41;96457.66;;;-0.46;100.00
20156;BME280;10238;49.556;10.956;2023-01-16T07:01:29;96467.13;;;-0.45;100.00
20156;BME280;10238;49.556;10.956;2023-01-16T07:04:17;96451.19;;;-0.42;100.00
20156;BME280;10238;49.556;10.956;2023-01-16T07:07:04;96441.03;;;-0.45;100.00
20156;BME280;10238;49.556;10.956;2023-01-16T07:09:52;96440.09;;;-0.44;100.00
20156;BME280;10238;49.556;10.956;2023-01-16T07:12:40;96438.28;;;-0.44;100.00
20156;BME280;10238;49.556;10.956;2023-01-16T07:15:29;96427.31;;;-0.38;100.00
20156;BME280;10238;49.556;10.956;2023-01-16T07:18:34;96426.38;;;-0.37;100.00
20156;BME280;10238;49.556;10.956;2023-01-16T07:21:41;96423.06;;;-0.29;100.00
20156;BME280;10238;49.556;10.956;2023-01-16T07:24:46;96410.00;;;-0.29;100.00
20156;BME280;10238;49.556;10.956;2023-01-16T07:27:34;96397.38;;;-0.24;100.00
20156;BME280;10238;49.556;10.956;2023-01-16T07:30:22;96399.88;;;-0.23;100.00
20156;BME280;10238;49.556;10.956;2023-01-16T07:33:11;96391.91;;;-0.21;100.00
20156;BME280;10238;49.556;10.956;2023-01-16T07:35:59;96379.81;;;-0.22;100.00
20156;BME280;10238;49.556;10.956;2023-01-16T07:38:47;96366.63;;;-0.21;100.00
20156;BME280;10238;49.556;10.956;2023-01-16T07:41:34;96365.38;;;-0.26;100.00
20156;BME280;10238;49.556;10.956;2023-01-16T07:44:26;96362.47;;;-0.23;100.00
20156;BME280;10238;49.556;10.956;2023-01-16T07:47:17;96352.47;;;-0.28;100.00
20156;BME280;10238;49.556;10.956;2023-01-16T07:50:07;96345.88;;;-0.22;100.00
20156;BME280;10238;49.556;10.956;2023-01-16T07:52:55;96344.34;;;-0.25;100.00
20156;BME280;10238;49.556;10.956;2023-01-16T07:55:43;96339.13;;;-0.25;100.00
20156;BME280;10238;49.556;10.956;2023-01-16T07:58:32;96325.13;;;-0.24;100.00
20156;BME280;10238;49.556;10.956;2023-01-16T08:01:19;96321.25;;;-0.10;100.00
20156;BME280;10238;49.556;10.956;2023-01-16T08:04:07;96307.38;;;0.09;100.00
20156;BME280;10238;49.556;10.956;2023-01-16T08:06:56;96310.16;;;0.34;100.00
20156;BME280;10238;49.556;10.956;2023-01-16T08:09:43;96303.84;;;0.37;100.00
20156;BME280;10238;49.556;10.956;2023-01-16T08:12:31;96297.16;;;0.61;100.00
20156;BME280;10238;49.556;10.956;2023-01-16T08:15:18;96280.78;;;0.59;100.00
20156;BME280;10238;49.556;10.956;2023-01-16T08:18:05;96278.47;;;0.83;100.00
20156;BME280;10238;49.556;10.956;2023-01-16T08:20:53;96274.97;;;0.92;100.00
20156;BME280;10238;49.556;10.956;2023-01-16T08:23:42;96277.38;;;1.03;100.00
20156;BME280;10238;49.556;10.956;2023-01-16T08:26:30;96264.38;;;1.11;100.00
20156;BME280;10238;49.556;10.956;2023-01-16T08:29:18;96250.50;;;1.11;100.00
20156;BME280;10238;49.556;10.956;2023-01-16T08:32:05;96239.94;;;1.20;100.00
20156;BME280;10238;49.556;10.956;2023-01-16T08:34:53;96231.16;;;1.21;100.00
20156;BME280;10238;49.556;10.956;2023-01-16T08:37:48;96217.44;;;1.27;100.00
20156;BME280;10238;49.556;10.956;2023-01-16T08:40:37;96219.03;;;1.38;100.00
20156;BME280;10238;49.556;10.956;2023-01-16T08:43:25;96207.34;;;1.50;100.00
20156;BME280;10238;49.556;10.956;2023-01-16T08:46:42;96202.00;;;1.59;100.00
20156;BME280;10238;49.556;10.956;2023-01-16T08:49:49;96193.91;;;1.70;100.00
20156;BME280;10238;49.556;10.956;2023-01-16T08:52:55;96184.78;;;1.74;100.00
20156;BME280;10238;49.556;10.956;2023-01-16T08:55:44;96178.31;;;1.86;100.00
20156;BME280;10238;49.556;10.956;2023-01-16T08:58:32;96169.16;;;1.90;100.00
20156;BME280;10238;49.556;10.956;2023-01-16T09:01:19;96168.22;;;1.91;100.00
20156;BME280;10238;49.556;10.956;2023-01-16T09:04:07;96167.81;;;2.12;100.00
20156;BME280;10238;49.556;10.956;2023-01-16T09:06:55;96159.69;;;2.23;100.00
20156;BME280;10238;49.556;10.956;2023-01-16T09:09:43;96159.22;;;2.28;100.00
20156;BME280;10238;49.556;10.956;2023-01-16T09:12:31;96162.66;;;2.28;100.00
20156;BME280;10238;49.556;10.956;2023-01-16T09:15:36;96156.28;;;2.39;100.00
20156;BME280;10238;49.556;10.956;2023-01-16T09:18:24;96158.97;;;2.47;100.00
20156;BME280;10238;49.556;10.956;2023-01-16T09:21:12;96146.53;;;2.57;100.00
20156;BME280;10238;49.556;10.956;2023-01-16T09:24:00;96131.16;;;2.62;100.00
20156;BME280;10238;49.556;10.956;2023-01-16T09:26:49;96125.25;;;2.76;100.00
20156;BME280;10238;49.556;10.956;2023-01-16T09:29:37;96113.97;;;2.91;100.00
20156;BME280;10238;49.556;10.956;2023-01-16T09:32:26;96107.41;;;3.03;100.00
20156;BME280;10238;49.556;10.956;2023-01-16T09:35:14;96107.44;;;3.27;100.00
20156;BME280;10238;49.556;10.956;2023-01-16T09:38:02;96092.31;;;3.45;100.00
20156;BME280;10238;49.556;10.956;2023-01-16T09:40:55;96090.16;;;3.57;100.00
20156;BME280;10238;49.556;10.956;2023-01-16T09:43:48;96078.31;;;3.69;100.00
20156;BME280;10238;49.556;10.956;2023-01-16T09:46:42;96080.59;;;3.72;100.00
20156;BME280;10238;49.556;10.956;2023-01-16T09:49:41;96074.00;;;3.84;100.00
20156;BME280;10238;49.556;10.956;2023-01-16T09:52:34;96074.47;;;3.95;100.00
20156;BME280;10238;49.556;10.956;2023-01-16T09:55:57;96060.25;;;4.12;100.00
20156;BME280;10238;49.556;10.956;2023-01-16T09:59:19;96048.00;;;4.35;100.00
20156;BME280;10238;49.556;10.956;2023-01-16T10:02:21;96030.38;;;4.44;100.00
20156;BME280;10238;49.556;10.956;2023-01-16T10:05:12;96035.56;;;4.52;100.00
20156;BME280;10238;49.556;10.956;2023-01-16T10:08:09;96022.56;;;4.50;100.00
20156;BME280;10238;49.556;10.956;2023-01-16T10:11:13;96027.03;;;4.50;100.00
20156;BME280;10238;49.556;10.956;2023-01-16T10:14:38;96021.34;;;4.61;100.00
20156;BME280;10238;49.556;10.956;2023-01-16T10:17:39;96004.19;;;4.73;100.00
20156;BME280;10238;49.556;10.956;2023-01-16T10:20:54;95985.72;;;4.96;100.00
20156;BME280;10238;49.556;10.956;2023-01-16T10:23:54;95968.59;;;5.00;100.00
20156;BME280;10238;49.556;10.956;2023-01-16T10:26:57;95956.47;;;5.13;100.00
20156;BME280;10238;49.556;10.956;2023-01-16T10:29:51;95956.47;;;5.13;100.00
20156;BME280;10238;49.556;10.956;2023-01-16T10:32:49;95948.09;;;5.10;100.00
20156;BME280;10238;49.556;10.956;2023-01-16T10:35:42;95943.66;;;5.25;100.00
20156;BME280;10238;49.556;10.956;2023-01-16T10:38:38;95936.50;;;5.33;100.00
20156;BME280;10238;49.556;10.956;2023-01-16T10:41:35;95923.41;;;5.25;100.00
20156;BME280;10238;49.556;10.956;2023-01-16T10:44:54;95912.50;;;4.99;100.00
20156;BME280;10238;49.556;10.956;2023-01-16T10:48:04;95904.59;;;4.85;100.00
20156;BME280;10238;49.556;10.956;2023-01-16T10:51:09;95910.31;;;4.88;100.00
20156;BME280;10238;49.556;10.956;2023-01-16T10:53:57;95911.66;;;4.99;100.00
20156;BME280;10238;49.556;10.956;2023-01-16T10:56:45;95908.31;;;5.05;100.00
20156;BME280;10238;49.556;10.956;2023-01-16T10:59:34;95900.25;;;5.06;100.00
20156;BME280;10238;49.556;10.956;2023-01-16T11:02:30;95887.00;;;5.14;100.00
20156;BME280;10238;49.556;10.956;2023-01-16T11:05:27;95865.47;;;5.25;100.00
20156;BME280;10238;49.556;10.956;2023-01-16T11:08:18;95857.13;;;5.36;100.00
20156;BME280;10238;49.556;10.956;2023-01-16T11:11:06;95837.78;;;5.44;100.00
20156;BME280;10238;49.556;10.956;2023-01-16T11:14:22;95839.44;;;5.51;100.00
20156;BME280;10238;49.556;10.956;2023-01-16T11:17:32;95827.00;;;5.60;100.00
20156;BME280;10238;49.556;10.956;2023-01-16T11:20:41;95805.84;;;5.53;100.00
20156;BME280;10238;49.556;10.956;2023-01-16T11:23:38;95803.34;;;5.45;100.00
20156;BME280;10238;49.556;10.956;2023-01-16T11:26:27;95794.31;;;5.54;100.00
20156;BME280;10238;49.556;10.956;2023-01-16T11:29:17;95784.53;;;5.69;100.00
20156;BME280;10238;49.556;10.956;2023-01-16T11:32:09;95769.66;;;5.62;100.00
20156;BME280;10238;49.556;10.956;2023-01-16T11:34:59;95778.56;;;5.61;100.00
20156;BME280;10238;49.556;10.956;2023-01-16T11:37:50;95770.59;;;5.54;100.00
20156;BME280;10238;49.556;10.956;2023-01-16T11:40:44;95772.66;;;5.59;100.00
20156;BME280;10238;49.556;10.956;2023-01-16T11:43:33;95761.56;;;5.42;100.00
20156;BME280;10238;49.556;10.956;2023-01-16T11:46:41;95754.28;;;5.44;100.00
20156;BME280;10238;49.556;10.956;2023-01-16T11:49:37;95752.75;;;5.35;100.00
20156;BME280;10238;49.556;10.956;2023-01-16T11:52:25;95731.69;;;5.35;100.00
20156;BME280;10238;49.556;10.956;2023-01-16T11:55:16;95722.44;;;5.39;100.00
20156;BME280;10238;49.556;10.956;2023-01-16T11:58:11;95694.75;;;5.50;100.00
20156;BME280;10238;49.556;10.956;2023-01-16T12:01:12;95688.69;;;5.49;100.00
20156;BME280;10238;49.556;10.956;2023-01-16T12:04:14;95679.22;;;5.34;100.00
20156;BME280;10238;49.556;10.956;2023-01-16T12:07:14;95675.22;;;5.38;100.00
20156;BME280;10238;49.556;10.956;2023-01-16T12:10:27;95669.50;;;5.34;100.00
20156;BME280;10238;49.556;10.956;2023-01-16T12:13:34;95662.16;;;5.30;100.00
20156;BME280;10238;49.556;10.956;2023-01-16T12:17:00;95654.81;;;5.25;100.00
20156;BME280;10238;49.556;10.956;2023-01-16T12:20:09;95666.00;;;5.27;100.00
20156;BME280;10238;49.556;10.956;2023-01-16T12:23:31;95651.25;;;5.33;100.00
20156;BME280;10238;49.556;10.956;2023-01-16T12:26:55;95650.06;;;5.35;100.00
20156;BME280;10238;49.556;10.956;2023-01-16T12:30:02;95659.78;;;5.35;100.00
20156;BME280;10238;49.556;10.956;2023-01-16T12:33:09;95670.56;;;5.40;100.00
20156;BME280;10238;49.556;10.956;2023-01-16T12:36:08;95662.47;;;5.41;100.00
20156;BME280;10238;49.556;10.956;2023-01-16T12:39:22;95670.00;;;5.44;100.00
20156;BME280;10238;49.556;10.956;2023-01-16T12:42:32;95675.72;;;5.48;100.00
20156;BME280;10238;49.556;10.956;2023-01-16T12:45:48;95670.47;;;5.54;100.00
20156;BME280;10238;49.556;10.956;2023-01-16T12:48:57;95663.75;;;5.45;100.00
20156;BME280;10238;49.556;10.956;2023-01-16T12:52:13;95661.50;;;5.42;100.00
20156;BME280;10238;49.556;10.956;2023-01-16T12:55:22;95668.88;;;5.53;100.00
20156;BME280;10238;49.556;10.956;2023-01-16T12:58:34;95662.03;;;5.59;100.00
20156;BME280;10238;49.556;10.956;2023-01-16T13:01:27;95662.84;;;5.59;100.00
20156;BME280;10238;49.556;10.956;2023-01-16T13:04:23;95664.44;;;5.54;100.00
20156;BME280;10238;49.556;10.956;2023-01-16T13:07:15;95657.13;;;5.56;100.00
20156;BME280;10238;49.556;10.956;2023-01-16T13:10:13;95647.78;;;5.53;100.00
20156;BME280;10238;49.556;10.956;2023-01-16T13:13:25;95652.69;;;5.56;100.00
20156;BME280;10238;49.556;10.956;2023-01-16T13:16:23;95650.25;;;5.55;100.00
20156;BME280;10238;49.556;10.956;2023-01-16T13:19:19;95633.22;;;5.57;100.00
20156;BME280;10238;49.556;10.956;2023-01-16T13:22:20;95624.72;;;5.55;100.00
20156;BME280;10238;49.556;10.956;2023-01-16T13:25:20;95619.44;;;5.55;100.00
20156;BME280;10238;49.556;10.956;2023-01-16T13:28:23;95625.97;;;5.59;100.00
20156;BME280;10238;49.556;10.956;2023-01-16T13:31:23;95636.88;;;5.56;100.00
20156;BME280;10238;49.556;10.956;2023-01-16T13:34:19;95639.31;;;5.58;100.00
20156;BME280;10238;49.556;10.956;2023-01-16T13:37:32;95641.88;;;5.51;100.00
20156;BME280;10238;49.556;10.956;2023-01-16T13:41:00;95644.09;;;5.48;100.00
20156;BME280;10238;49.556;10.956;2023-01-16T13:43:59;95639.78;;;5.40;100.00
20156;BME280;10238;49.556;10.956;2023-01-16T13:47:13;95631.50;;;5.43;100.00
20156;BME280;10238;49.556;10.956;2023-01-16T13:50:07;95639.59;;;5.42;100.00
20156;BME280;10238;49.556;10.956;2023-01-16T13:53:07;95632.88;;;5.39;100.00
20156;BME280;10238;49.556;10.956;2023-01-16T13:56:08;95630.63;;;5.36;100.00
20156;BME280;10238;49.556;10.956;2023-01-16T13:59:02;95623.69;;;5.29;100.00
20156;BME280;10238;49.556;10.956;2023-01-16T14:01:56;95622.09;;;5.34;100.00
20156;BME280;10238;49.556;10.956;2023-01-16T14:05:45;95619.84;;;5.31;100.00
20156;BME280;10238;49.556;10.956;2023-01-16T14:08:50;95609.50;;;5.30;100.00
20156;BME280;10238;49.556;10.956;2023-01-16T14:12:00;95596.03;;;5.18;100.00
20156;BME280;10238;49.556;10.956;2023-01-16T14:15:15;95582.00;;;5.11;100.00
20156;BME280;10238;49.556;10.956;2023-01-16T14:18:37;95575.34;;;5.15;100.00
20156;BME280;10238;49.556;10.956;2023-01-16T14:21:39;95566.00;;;5.13;100.00
20156;BME280;10238;49.556;10.956;2023-01-16T14:24:37;95580.22;;;5.18;100.00
20156;BME280;10238;49.556;10.956;2023-01-16T14:27:32;95563.56;;;5.11;100.00
20156;BME280;10238;49.556;10.956;2023-01-16T14:30:24;95568.19;;;5.09;100.00
20156;BME280;10238;49.556;10.956;2023-01-16T14:33:16;95538.25;;;5.10;100.00
20156;BME280;10238;49.556;10.956;2023-01-16T14:36:09;95540.06;;;5.10;100.00
20156;BME280;10238;49.556;10.956;2023-01-16T14:39:02;95540.75;;;5.18;100.00
20156;BME280;10238;49.556;10.956;2023-01-16T14:41:50;95530.75;;;5.07;100.00
20156;BME280;10238;49.556;10.956;2023-01-16T14:45:30;95518.19;;;5.09;100.00
20156;BME280;10238;49.556;10.956;2023-01-16T14:48:37;95508.66;;;5.08;100.00
20156;BME280;10238;49.556;10.956;2023-01-16T14:51:59;95498.34;;;5.07;100.00
20156;BME280;10238;49.556;10.956;2023-01-16T14:55:11;95499.53;;;5.04;100.00
20156;BME280;10238;49.556;10.956;2023-01-16T14:58:02;95477.28;;;5.07;100.00
20156;BME280;10238;49.556;10.956;2023-01-16T15:00:56;95474.44;;;5.08;100.00
20156;BME280;10238;49.556;10.956;2023-01-16T15:04:00;95457.03;;;5.07;100.00
20156;BME280;10238;49.556;10.956;2023-01-16T15:06:55;95451.78;;;5.07;100.00
20156;BME280;10238;49.556;10.956;2023-01-16T15:09:45;95437.63;;;5.15;100.00
20156;BME280;10238;49.556;10.956;2023-01-16T15:12:40;95438.13;;;5.25;100.00
20156;BME280;10238;49.556;10.956;2023-01-16T15:15:31;95425.19;;;5.30;100.00